sensor_id;sensor_type;location;lat;lon;timestamp;P1;durP1;ratioP1;P2;durP2;ratioP2
44328;SDS011;30039;51.462;6.892;2022-12-05T00:00:57;35.70;;;15.57;;
44328;SDS011;30039;51.462;6.892;2022-12-05T00:03:45;30.80;;;14.85;;
44328;SDS011;30039;51.462;6.892;2022-12-05T00:06:31;28.88;;;14.82;;
44328;SDS011;30039;51.462;6.892;2022-12-05T00:09:17;28.17;;;15.10;;
44328;SDS011;30039;51.462;6.892;2022-12-05T00:12:03;29.33;;;15.65;;
44328;SDS011;30039;51.462;6.892;2022-12-05T00:14:49;28.30;;;14.98;;
44328;SDS011;30039;51.462;6.892;2022-12-05T00:17:35;30.38;;;14.48;;
44328;SDS011;30039;51.462;6.892;2022-12-05T00:20:20;31.65;;;15.18;;
44328;SDS011;30039;51.462;6.892;2022-12-05T00:23:06;28.17;;;14.45;;
44328;SDS011;30039;51.462;6.892;2022-12-05T00:25:52;27.60;;;14.15;;
44328;SDS011;30039;51.462;6.892;2022-12-05T00:28:38;29.55;;;15.10;;
44328;SDS011;30039;51.462;6.892;2022-12-05T00:31:26;31.45;;;15.77;;
44328;SDS011;30039;51.462;6.892;2022-12-05T00:34:12;32.92;;;15.27;;
44328;SDS011;30039;51.462;6.892;2022-12-05T00:36:57;30.40;;;15.25;;
44328;SDS011;30039;51.462;6.892;2022-12-05T00:39:43;28.88;;;14.65;;
44328;SDS011;30039;51.462;6.892;2022-12-05T00:42:29;29.52;;;14.70;;
44328;SDS011;30039;51.462;6.892;2022-12-05T00:45:14;31.05;;;14.85;;
44328;SDS011;30039;51.462;6.892;2022-12-05T00:48:00;28.10;;;14.60;;
44328;SDS011;30039;51.462;6.892;2022-12-05T00:50:46;29.95;;;15.18;;
44328;SDS011;30039;51.462;6.892;2022-12-05T00:53:33;35.95;;;15.45;;
44328;SDS011;30039;51.462;6.892;2022-12-05T00:56:21;27.42;;;14.55;;
44328;SDS011;30039;51.462;6.892;2022-12-05T00:59:07;29.58;;;14.35;;
44328;SDS011;30039;51.462;6.892;2022-12-05T01:01:52;31.90;;;15.57;;
44328;SDS011;30039;51.462;6.892;2022-12-05T01:04:38;28.40;;;13.93;;
44328;SDS011;30039;51.462;6.892;2022-12-05T01:07:24;32.53;;;14.98;;
44328;SDS011;30039;51.462;6.892;2022-12-05T01:10:10;27.45;;;14.43;;
44328;SDS011;30039;51.462;6.892;2022-12-05T01:12:55;28.25;;;14.93;;
44328;SDS011;30039;51.462;6.892;2022-12-05T01:15:41;26.80;;;13.88;;
44328;SDS011;30039;51.462;6.892;2022-12-05T01:18:27;25.63;;;14.60;;
44328;SDS011;30039;51.462;6.892;2022-12-05T01:21:13;29.45;;;14.93;;
44328;SDS011;30039;51.462;6.892;2022-12-05T01:23:59;27.27;;;14.70;;
44328;SDS011;30039;51.462;6.892;2022-12-05T01:26:46;25.60;;;14.82;;
44328;SDS011;30039;51.462;6.892;2022-12-05T01:29:33;27.17;;;14.75;;
44328;SDS011;30039;51.462;6.892;2022-12-05T01:32:19;31.95;;;15.57;;
44328;SDS011;30039;51.462;6.892;2022-12-05T01:35:05;27.20;;;14.55;;
44328;SDS011;30039;51.462;6.892;2022-12-05T01:37:51;30.73;;;14.88;;
44328;SDS011;30039;51.462;6.892;2022-12-05T01:40:36;28.60;;;15.18;;
44328;SDS011;30039;51.462;6.892;2022-12-05T01:43:22;28.65;;;14.45;;
44328;SDS011;30039;51.462;6.892;2022-12-05T01:46:08;30.92;;;14.45;;
44328;SDS011;30039;51.462;6.892;2022-12-05T01:49:16;30.95;;;14.88;;
44328;SDS011;30039;51.462;6.892;2022-12-05T01:52:02;34.85;;;14.23;;
44328;SDS011;30039;51.462;6.892;2022-12-05T01:54:49;32.03;;;15.07;;
44328;SDS011;30039;51.462;6.892;2022-12-05T01:57:36;33.17;;;14.93;;
44328;SDS011;30039;51.462;6.892;2022-12-05T02:00:23;29.83;;;15.70;;
44328;SDS011;30039;51.462;6.892;2022-12-05T02:03:11;29.30;;;14.43;;
44328;SDS011;30039;51.462;6.892;2022-12-05T02:06:01;33.45;;;14.70;;
44328;SDS011;30039;51.462;6.892;2022-12-05T02:08:47;29.90;;;14.85;;
44328;SDS011;30039;51.462;6.892;2022-12-05T02:11:33;27.95;;;14.60;;
44328;SDS011;30039;51.462;6.892;2022-12-05T02:28:55;31.00;;;16.38;;
44328;SDS011;30039;51.462;6.892;2022-12-05T02:31:50;33.50;;;14.50;;
44328;SDS011;30039;51.462;6.892;2022-12-05T02:37:27;30.17;;;15.05;;
44328;SDS011;30039;51.462;6.892;2022-12-05T02:45:50;32.50;;;15.52;;
44328;SDS011;30039;51.462;6.892;2022-12-05T02:48:37;31.88;;;15.73;;
44328;SDS011;30039;51.462;6.892;2022-12-05T02:51:23;33.13;;;15.77;;
44328;SDS011;30039;51.462;6.892;2022-12-05T02:54:14;30.88;;;15.25;;
44328;SDS011;30039;51.462;6.892;2022-12-05T02:57:01;33.88;;;16.10;;
44328;SDS011;30039;51.462;6.892;2022-12-05T02:59:47;33.13;;;15.95;;
44328;SDS011;30039;51.462;6.892;2022-12-05T03:02:33;28.67;;;13.40;;
44328;SDS011;30039;51.462;6.892;2022-12-05T03:06:02;30.42;;;15.00;;
44328;SDS011;30039;51.462;6.892;2022-12-05T03:08:29;30.25;;;14.07;;
44328;SDS011;30039;51.462;6.892;2022-12-05T03:11:16;33.35;;;15.65;;
44328;SDS011;30039;51.462;6.892;2022-12-05T03:14:01;28.65;;;13.85;;
44328;SDS011;30039;51.462;6.892;2022-12-05T03:16:49;29.77;;;14.65;;
44328;SDS011;30039;51.462;6.892;2022-12-05T03:19:40;23.80;;;13.30;;
44328;SDS011;30039;51.462;6.892;2022-12-05T03:22:30;29.23;;;14.48;;
44328;SDS011;30039;51.462;6.892;2022-12-05T03:25:16;28.73;;;14.02;;
44328;SDS011;30039;51.462;6.892;2022-12-05T03:31:19;29.83;;;14.43;;
44328;SDS011;30039;51.462;6.892;2022-12-05T03:34:06;26.35;;;13.30;;
44328;SDS011;30039;51.462;6.892;2022-12-05T03:36:55;28.67;;;13.60;;
44328;SDS011;30039;51.462;6.892;2022-12-05T03:39:43;26.17;;;12.57;;
44328;SDS011;30039;51.462;6.892;2022-12-05T03:42:30;27.23;;;12.82;;
44328;SDS011;30039;51.462;6.892;2022-12-05T03:45:19;30.80;;;14.98;;
44328;SDS011;30039;51.462;6.892;2022-12-05T03:48:09;30.65;;;13.98;;
44328;SDS011;30039;51.462;6.892;2022-12-05T03:50:59;27.30;;;12.93;;
44328;SDS011;30039;51.462;6.892;2022-12-05T03:53:50;32.70;;;15.45;;
44328;SDS011;30039;51.462;6.892;2022-12-05T03:56:42;24.85;;;13.75;;
44328;SDS011;30039;51.462;6.892;2022-12-05T03:59:33;31.30;;;14.93;;
44328;SDS011;30039;51.462;6.892;2022-12-05T04:02:24;29.58;;;13.95;;
44328;SDS011;30039;51.462;6.892;2022-12-05T04:05:13;29.27;;;13.75;;
44328;SDS011;30039;51.462;6.892;2022-12-05T04:08:01;27.48;;;13.75;;
44328;SDS011;30039;51.462;6.892;2022-12-05T04:10:50;31.33;;;14.75;;
44328;SDS011;30039;51.462;6.892;2022-12-05T04:13:39;30.17;;;14.32;;
44328;SDS011;30039;51.462;6.892;2022-12-05T04:16:30;30.60;;;14.45;;
44328;SDS011;30039;51.462;6.892;2022-12-05T04:23:01;33.40;;;15.13;;
44328;SDS011;30039;51.462;6.892;2022-12-05T04:26:31;33.10;;;15.65;;
44328;SDS011;30039;51.462;6.892;2022-12-05T04:29:02;31.67;;;14.75;;
44328;SDS011;30039;51.462;6.892;2022-12-05T04:31:51;30.88;;;14.93;;
44328;SDS011;30039;51.462;6.892;2022-12-05T04:34:38;32.72;;;15.00;;
44328;SDS011;30039;51.462;6.892;2022-12-05T04:37:24;35.17;;;15.75;;
44328;SDS011;30039;51.462;6.892;2022-12-05T04:40:16;28.75;;;14.50;;
44328;SDS011;30039;51.462;6.892;2022-12-05T04:43:04;31.40;;;14.48;;
44328;SDS011;30039;51.462;6.892;2022-12-05T04:45:50;31.02;;;14.60;;
44328;SDS011;30039;51.462;6.892;2022-12-05T04:48:37;30.88;;;14.80;;
44328;SDS011;30039;51.462;6.892;2022-12-05T04:51:25;33.35;;;15.55;;
44328;SDS011;30039;51.462;6.892;2022-12-05T04:57:24;33.08;;;15.55;;
44328;SDS011;30039;51.462;6.892;2022-12-05T05:00:11;31.45;;;14.90;;
44328;SDS011;30039;51.462;6.892;2022-12-05T05:03:04;37.78;;;15.60;;
44328;SDS011;30039;51.462;6.892;2022-12-05T05:05:53;34.42;;;16.08;;
44328;SDS011;30039;51.462;6.892;2022-12-05T05:08:49;34.03;;;14.93;;
44328;SDS011;30039;51.462;6.892;2022-12-05T05:11:35;33.30;;;15.82;;
44328;SDS011;30039;51.462;6.892;2022-12-05T05:14:21;31.92;;;14.85;;
44328;SDS011;30039;51.462;6.892;2022-12-05T05:17:07;34.03;;;15.07;;
44328;SDS011;30039;51.462;6.892;2022-12-05T05:19:53;35.95;;;16.90;;
44328;SDS011;30039;51.462;6.892;2022-12-05T05:22:59;32.22;;;14.48;;
44328;SDS011;30039;51.462;6.892;2022-12-05T05:25:44;31.63;;;14.23;;
44328;SDS011;30039;51.462;6.892;2022-12-05T05:28:30;30.85;;;14.88;;
44328;SDS011;30039;51.462;6.892;2022-12-05T05:31:16;28.33;;;13.85;;
44328;SDS011;30039;51.462;6.892;2022-12-05T05:34:03;27.02;;;13.13;;
44328;SDS011;30039;51.462;6.892;2022-12-05T05:36:52;28.23;;;14.68;;
44328;SDS011;30039;51.462;6.892;2022-12-05T05:39:37;29.45;;;13.52;;
44328;SDS011;30039;51.462;6.892;2022-12-05T05:42:23;29.40;;;13.57;;
44328;SDS011;30039;51.462;6.892;2022-12-05T05:45:09;27.80;;;14.32;;
44328;SDS011;30039;51.462;6.892;2022-12-05T05:47:56;26.55;;;13.77;;
44328;SDS011;30039;51.462;6.892;2022-12-05T05:50:42;33.10;;;14.88;;
44328;SDS011;30039;51.462;6.892;2022-12-05T05:53:34;30.88;;;15.27;;
44328;SDS011;30039;51.462;6.892;2022-12-05T05:56:20;34.70;;;14.65;;
44328;SDS011;30039;51.462;6.892;2022-12-05T05:59:05;26.30;;;13.65;;
44328;SDS011;30039;51.462;6.892;2022-12-05T06:01:51;29.33;;;13.68;;
44328;SDS011;30039;51.462;6.892;2022-12-05T06:04:37;26.45;;;14.00;;
44328;SDS011;30039;51.462;6.892;2022-12-05T06:07:23;27.02;;;13.95;;
44328;SDS011;30039;51.462;6.892;2022-12-05T06:10:08;26.95;;;14.30;;
44328;SDS011;30039;51.462;6.892;2022-12-05T06:12:54;28.63;;;14.10;;
44328;SDS011;30039;51.462;6.892;2022-12-05T06:15:40;29.23;;;14.27;;
44328;SDS011;30039;51.462;6.892;2022-12-05T06:18:27;27.17;;;13.07;;
44328;SDS011;30039;51.462;6.892;2022-12-05T06:21:12;20.50;;;12.13;;
44328;SDS011;30039;51.462;6.892;2022-12-05T06:23:58;23.00;;;12.77;;
44328;SDS011;30039;51.462;6.892;2022-12-05T06:26:44;25.60;;;13.43;;
44328;SDS011;30039;51.462;6.892;2022-12-05T06:29:29;24.98;;;12.77;;
44328;SDS011;30039;51.462;6.892;2022-12-05T06:32:15;26.63;;;14.40;;
44328;SDS011;30039;51.462;6.892;2022-12-05T06:35:01;24.60;;;13.77;;
44328;SDS011;30039;51.462;6.892;2022-12-05T06:37:52;26.67;;;13.77;;
44328;SDS011;30039;51.462;6.892;2022-12-05T06:40:42;23.08;;;12.88;;
44328;SDS011;30039;51.462;6.892;2022-12-05T06:43:28;21.98;;;12.32;;
44328;SDS011;30039;51.462;6.892;2022-12-05T06:46:14;24.95;;;12.45;;
44328;SDS011;30039;51.462;6.892;2022-12-05T06:49:01;27.23;;;13.50;;
44328;SDS011;30039;51.462;6.892;2022-12-05T06:51:48;24.80;;;11.90;;
44328;SDS011;30039;51.462;6.892;2022-12-05T06:54:34;24.15;;;11.57;;
44328;SDS011;30039;51.462;6.892;2022-12-05T06:57:20;21.77;;;10.93;;
44328;SDS011;30039;51.462;6.892;2022-12-05T07:00:06;21.10;;;11.15;;
44328;SDS011;30039;51.462;6.892;2022-12-05T07:03:10;17.70;;;10.32;;
44328;SDS011;30039;51.462;6.892;2022-12-05T07:05:59;21.35;;;10.88;;
44328;SDS011;30039;51.462;6.892;2022-12-05T07:08:44;20.75;;;9.73;;
44328;SDS011;30039;51.462;6.892;2022-12-05T07:11:31;20.10;;;10.40;;
44328;SDS011;30039;51.462;6.892;2022-12-05T07:14:17;24.42;;;10.90;;
44328;SDS011;30039;51.462;6.892;2022-12-05T07:17:03;21.48;;;10.15;;
44328;SDS011;30039;51.462;6.892;2022-12-05T07:19:49;16.25;;;9.45;;
44328;SDS011;30039;51.462;6.892;2022-12-05T07:22:35;19.48;;;10.73;;
44328;SDS011;30039;51.462;6.892;2022-12-05T07:25:21;22.25;;;9.70;;
44328;SDS011;30039;51.462;6.892;2022-12-05T07:28:07;16.83;;;9.25;;
44328;SDS011;30039;51.462;6.892;2022-12-05T07:31:01;17.75;;;10.27;;
44328;SDS011;30039;51.462;6.892;2022-12-05T07:33:47;16.50;;;8.60;;
44328;SDS011;30039;51.462;6.892;2022-12-05T07:36:33;16.98;;;9.48;;
44328;SDS011;30039;51.462;6.892;2022-12-05T07:39:21;18.00;;;10.18;;
44328;SDS011;30039;51.462;6.892;2022-12-05T07:42:07;18.67;;;9.57;;
44328;SDS011;30039;51.462;6.892;2022-12-05T07:44:53;14.98;;;8.52;;
44328;SDS011;30039;51.462;6.892;2022-12-05T07:47:39;14.82;;;8.90;;
44328;SDS011;30039;51.462;6.892;2022-12-05T07:50:25;16.10;;;9.15;;
44328;SDS011;30039;51.462;6.892;2022-12-05T07:53:11;15.65;;;9.50;;
44328;SDS011;30039;51.462;6.892;2022-12-05T07:55:57;17.23;;;9.20;;
44328;SDS011;30039;51.462;6.892;2022-12-05T08:01:38;13.30;;;7.78;;
44328;SDS011;30039;51.462;6.892;2022-12-05T08:04:24;14.45;;;8.50;;
44328;SDS011;30039;51.462;6.892;2022-12-05T08:07:10;16.27;;;8.77;;
44328;SDS011;30039;51.462;6.892;2022-12-05T08:09:55;13.00;;;7.90;;
44328;SDS011;30039;51.462;6.892;2022-12-05T08:12:41;14.52;;;8.18;;
44328;SDS011;30039;51.462;6.892;2022-12-05T08:15:29;13.07;;;7.95;;
44328;SDS011;30039;51.462;6.892;2022-12-05T08:18:17;12.98;;;7.78;;
44328;SDS011;30039;51.462;6.892;2022-12-05T08:21:04;15.52;;;8.13;;
44328;SDS011;30039;51.462;6.892;2022-12-05T08:23:50;12.00;;;7.60;;
44328;SDS011;30039;51.462;6.892;2022-12-05T08:26:37;14.38;;;8.15;;
44328;SDS011;30039;51.462;6.892;2022-12-05T08:29:23;15.88;;;8.23;;
44328;SDS011;30039;51.462;6.892;2022-12-05T08:32:09;13.77;;;7.78;;
44328;SDS011;30039;51.462;6.892;2022-12-05T08:34:54;15.07;;;7.88;;
44328;SDS011;30039;51.462;6.892;2022-12-05T08:37:41;12.48;;;7.57;;
44328;SDS011;30039;51.462;6.892;2022-12-05T08:40:27;14.68;;;7.82;;
44328;SDS011;30039;51.462;6.892;2022-12-05T08:43:13;12.70;;;7.32;;
44328;SDS011;30039;51.462;6.892;2022-12-05T08:45:59;11.95;;;6.93;;
44328;SDS011;30039;51.462;6.892;2022-12-05T08:48:45;12.18;;;7.50;;
44328;SDS011;30039;51.462;6.892;2022-12-05T08:51:31;13.35;;;7.60;;
44328;SDS011;30039;51.462;6.892;2022-12-05T08:54:16;12.25;;;7.68;;
44328;SDS011;30039;51.462;6.892;2022-12-05T08:57:02;12.45;;;7.47;;
44328;SDS011;30039;51.462;6.892;2022-12-05T08:59:48;12.32;;;7.13;;
44328;SDS011;30039;51.462;6.892;2022-12-05T09:02:36;13.57;;;8.00;;
44328;SDS011;30039;51.462;6.892;2022-12-05T09:05:21;12.95;;;8.02;;
44328;SDS011;30039;51.462;6.892;2022-12-05T09:08:07;12.90;;;8.25;;
44328;SDS011;30039;51.462;6.892;2022-12-05T09:10:53;13.32;;;7.88;;
44328;SDS011;30039;51.462;6.892;2022-12-05T09:13:39;14.75;;;7.93;;
44328;SDS011;30039;51.462;6.892;2022-12-05T09:16:27;14.18;;;8.48;;
44328;SDS011;30039;51.462;6.892;2022-12-05T09:19:16;13.48;;;8.05;;
44328;SDS011;30039;51.462;6.892;2022-12-05T09:22:03;13.95;;;7.68;;
44328;SDS011;30039;51.462;6.892;2022-12-05T09:24:50;13.82;;;8.05;;
44328;SDS011;30039;51.462;6.892;2022-12-05T09:27:36;13.77;;;8.85;;
44328;SDS011;30039;51.462;6.892;2022-12-05T09:30:22;13.65;;;7.78;;
44328;SDS011;30039;51.462;6.892;2022-12-05T09:33:10;15.15;;;7.82;;
44328;SDS011;30039;51.462;6.892;2022-12-05T09:35:56;16.48;;;8.90;;
44328;SDS011;30039;51.462;6.892;2022-12-05T09:38:43;15.93;;;9.30;;
44328;SDS011;30039;51.462;6.892;2022-12-05T09:47:41;13.75;;;8.00;;
44328;SDS011;30039;51.462;6.892;2022-12-05T09:50:53;15.50;;;9.85;;
44328;SDS011;30039;51.462;6.892;2022-12-05T09:53:38;14.00;;;8.73;;
44328;SDS011;30039;51.462;6.892;2022-12-05T09:56:26;17.05;;;9.73;;
44328;SDS011;30039;51.462;6.892;2022-12-05T09:59:13;13.00;;;8.38;;
44328;SDS011;30039;51.462;6.892;2022-12-05T10:05:26;14.93;;;8.83;;
44328;SDS011;30039;51.462;6.892;2022-12-05T10:08:19;18.35;;;9.90;;
44328;SDS011;30039;51.462;6.892;2022-12-05T10:11:13;14.95;;;9.77;;
44328;SDS011;30039;51.462;6.892;2022-12-05T10:17:09;17.60;;;10.52;;
44328;SDS011;30039;51.462;6.892;2022-12-05T10:19:56;16.33;;;10.82;;
44328;SDS011;30039;51.462;6.892;2022-12-05T10:22:46;16.77;;;10.32;;
44328;SDS011;30039;51.462;6.892;2022-12-05T10:25:32;16.75;;;10.48;;
44328;SDS011;30039;51.462;6.892;2022-12-05T10:28:30;21.33;;;11.77;;
44328;SDS011;30039;51.462;6.892;2022-12-05T10:31:18;26.85;;;12.50;;
44328;SDS011;30039;51.462;6.892;2022-12-05T10:34:22;18.55;;;11.20;;
44328;SDS011;30039;51.462;6.892;2022-12-05T10:37:18;16.75;;;10.38;;
44328;SDS011;30039;51.462;6.892;2022-12-05T10:40:05;21.30;;;11.18;;
44328;SDS011;30039;51.462;6.892;2022-12-05T10:42:52;16.33;;;9.38;;
44328;SDS011;30039;51.462;6.892;2022-12-05T10:45:44;15.20;;;9.20;;
44328;SDS011;30039;51.462;6.892;2022-12-05T10:48:33;14.25;;;8.23;;
44328;SDS011;30039;51.462;6.892;2022-12-05T10:51:22;15.45;;;9.38;;
44328;SDS011;30039;51.462;6.892;2022-12-05T10:54:17;13.32;;;8.52;;
44328;SDS011;30039;51.462;6.892;2022-12-05T10:57:19;12.48;;;8.40;;
44328;SDS011;30039;51.462;6.892;2022-12-05T11:00:12;13.32;;;8.20;;
44328;SDS011;30039;51.462;6.892;2022-12-05T11:02:59;12.55;;;8.20;;
44328;SDS011;30039;51.462;6.892;2022-12-05T11:05:49;12.23;;;8.18;;
44328;SDS011;30039;51.462;6.892;2022-12-05T11:08:35;12.73;;;8.20;;
44328;SDS011;30039;51.462;6.892;2022-12-05T11:11:26;12.45;;;8.35;;
44328;SDS011;30039;51.462;6.892;2022-12-05T11:14:23;14.45;;;8.45;;
44328;SDS011;30039;51.462;6.892;2022-12-05T11:17:09;13.00;;;8.02;;
44328;SDS011;30039;51.462;6.892;2022-12-05T11:23:14;12.00;;;8.15;;
44328;SDS011;30039;51.462;6.892;2022-12-05T11:26:00;11.93;;;7.80;;
44328;SDS011;30039;51.462;6.892;2022-12-05T11:28:46;12.80;;;8.48;;
44328;SDS011;30039;51.462;6.892;2022-12-05T11:31:33;14.40;;;8.18;;
44328;SDS011;30039;51.462;6.892;2022-12-05T11:34:20;15.27;;;8.95;;
44328;SDS011;30039;51.462;6.892;2022-12-05T11:37:11;12.52;;;8.43;;
44328;SDS011;30039;51.462;6.892;2022-12-05T11:39:59;13.75;;;8.85;;
44328;SDS011;30039;51.462;6.892;2022-12-05T11:45:53;14.18;;;8.68;;
44328;SDS011;30039;51.462;6.892;2022-12-05T11:48:52;16.08;;;10.13;;
44328;SDS011;30039;51.462;6.892;2022-12-05T11:54:41;16.95;;;9.70;;
44328;SDS011;30039;51.462;6.892;2022-12-05T11:57:44;13.88;;;9.07;;
44328;SDS011;30039;51.462;6.892;2022-12-05T12:00:40;11.90;;;8.50;;
44328;SDS011;30039;51.462;6.892;2022-12-05T12:09:43;11.93;;;8.02;;
44328;SDS011;30039;51.462;6.892;2022-12-05T12:21:16;11.18;;;7.82;;
44328;SDS011;30039;51.462;6.892;2022-12-05T12:33:07;14.73;;;8.98;;
44328;SDS011;30039;51.462;6.892;2022-12-05T12:50:51;14.57;;;8.05;;
44328;SDS011;30039;51.462;6.892;2022-12-05T12:53:51;12.25;;;7.95;;
44328;SDS011;30039;51.462;6.892;2022-12-05T13:02:42;11.18;;;7.60;;
44328;SDS011;30039;51.462;6.892;2022-12-05T13:05:32;13.23;;;8.25;;
44328;SDS011;30039;51.462;6.892;2022-12-05T13:11:06;14.88;;;8.60;;
44328;SDS011;30039;51.462;6.892;2022-12-05T13:13:56;12.52;;;8.43;;
44328;SDS011;30039;51.462;6.892;2022-12-05T13:16:45;14.65;;;8.77;;
44328;SDS011;30039;51.462;6.892;2022-12-05T13:22:23;19.60;;;13.75;;
44328;SDS011;30039;51.462;6.892;2022-12-05T13:25:14;15.43;;;9.48;;
44328;SDS011;30039;51.462;6.892;2022-12-05T13:28:00;12.55;;;7.60;;
44328;SDS011;30039;51.462;6.892;2022-12-05T13:30:48;13.63;;;8.32;;
44328;SDS011;30039;51.462;6.892;2022-12-05T13:33:48;11.93;;;9.02;;
44328;SDS011;30039;51.462;6.892;2022-12-05T13:36:38;12.55;;;8.80;;
44328;SDS011;30039;51.462;6.892;2022-12-05T13:39:51;13.55;;;9.25;;
44328;SDS011;30039;51.462;6.892;2022-12-05T13:43:01;14.25;;;8.07;;
44328;SDS011;30039;51.462;6.892;2022-12-05T13:45:54;12.38;;;8.35;;
44328;SDS011;30039;51.462;6.892;2022-12-05T13:48:43;14.15;;;9.15;;
44328;SDS011;30039;51.462;6.892;2022-12-05T13:51:36;14.15;;;9.02;;
44328;SDS011;30039;51.462;6.892;2022-12-05T13:54:23;15.70;;;10.98;;
44328;SDS011;30039;51.462;6.892;2022-12-05T13:57:43;17.15;;;11.18;;
44328;SDS011;30039;51.462;6.892;2022-12-05T14:00:20;17.23;;;11.55;;
44328;SDS011;30039;51.462;6.892;2022-12-05T14:03:17;14.48;;;9.15;;
44328;SDS011;30039;51.462;6.892;2022-12-05T14:09:27;16.40;;;10.90;;
44328;SDS011;30039;51.462;6.892;2022-12-05T14:15:00;15.50;;;10.48;;
44328;SDS011;30039;51.462;6.892;2022-12-05T14:17:49;15.43;;;9.95;;
44328;SDS011;30039;51.462;6.892;2022-12-05T14:21:03;13.82;;;9.30;;
44328;SDS011;30039;51.462;6.892;2022-12-05T14:32:27;16.45;;;9.23;;
44328;SDS011;30039;51.462;6.892;2022-12-05T14:38:03;15.93;;;9.50;;
44328;SDS011;30039;51.462;6.892;2022-12-05T14:40:49;15.77;;;10.00;;
44328;SDS011;30039;51.462;6.892;2022-12-05T14:43:35;27.27;;;16.17;;
44328;SDS011;30039;51.462;6.892;2022-12-05T14:52:32;15.48;;;10.02;;
44328;SDS011;30039;51.462;6.892;2022-12-05T14:55:18;18.35;;;9.73;;
44328;SDS011;30039;51.462;6.892;2022-12-05T14:58:04;14.85;;;9.52;;
44328;SDS011;30039;51.462;6.892;2022-12-05T15:00:58;14.23;;;8.93;;
44328;SDS011;30039;51.462;6.892;2022-12-05T15:12:37;12.73;;;8.32;;
44328;SDS011;30039;51.462;6.892;2022-12-05T15:16:24;15.63;;;8.88;;
44328;SDS011;30039;51.462;6.892;2022-12-05T15:18:43;13.82;;;8.25;;
44328;SDS011;30039;51.462;6.892;2022-12-05T15:24:18;13.52;;;9.25;;
44328;SDS011;30039;51.462;6.892;2022-12-05T15:27:04;11.40;;;7.30;;
44328;SDS011;30039;51.462;6.892;2022-12-05T15:29:52;13.20;;;8.82;;
44328;SDS011;30039;51.462;6.892;2022-12-05T15:32:40;14.23;;;9.82;;
44328;SDS011;30039;51.462;6.892;2022-12-05T15:35:27;14.93;;;9.20;;
44328;SDS011;30039;51.462;6.892;2022-12-05T15:38:20;14.57;;;10.45;;
44328;SDS011;30039;51.462;6.892;2022-12-05T15:41:14;15.82;;;10.95;;
44328;SDS011;30039;51.462;6.892;2022-12-05T15:44:00;15.68;;;10.70;;
44328;SDS011;30039;51.462;6.892;2022-12-05T15:46:54;15.88;;;10.32;;
44328;SDS011;30039;51.462;6.892;2022-12-05T15:49:40;15.48;;;10.23;;
44328;SDS011;30039;51.462;6.892;2022-12-05T15:58:23;13.18;;;8.70;;
44328;SDS011;30039;51.462;6.892;2022-12-05T16:01:23;15.82;;;10.35;;
44328;SDS011;30039;51.462;6.892;2022-12-05T16:07:16;18.50;;;11.90;;
44328;SDS011;30039;51.462;6.892;2022-12-05T16:10:02;15.30;;;9.60;;
44328;SDS011;30039;51.462;6.892;2022-12-05T16:12:49;13.95;;;8.55;;
44328;SDS011;30039;51.462;6.892;2022-12-05T16:15:36;12.35;;;8.40;;
44328;SDS011;30039;51.462;6.892;2022-12-05T16:18:29;13.13;;;7.63;;
44328;SDS011;30039;51.462;6.892;2022-12-05T16:24:21;16.63;;;10.55;;
44328;SDS011;30039;51.462;6.892;2022-12-05T16:27:24;15.60;;;9.82;;
44328;SDS011;30039;51.462;6.892;2022-12-05T16:32:58;16.45;;;10.20;;
44328;SDS011;30039;51.462;6.892;2022-12-05T16:35:45;17.65;;;10.32;;
44328;SDS011;30039;51.462;6.892;2022-12-05T16:38:31;15.02;;;9.60;;
44328;SDS011;30039;51.462;6.892;2022-12-05T16:41:17;15.75;;;10.93;;
44328;SDS011;30039;51.462;6.892;2022-12-05T16:44:03;20.83;;;10.40;;
44328;SDS011;30039;51.462;6.892;2022-12-05T16:46:49;14.65;;;9.70;;
44328;SDS011;30039;51.462;6.892;2022-12-05T16:49:35;18.08;;;10.18;;
44328;SDS011;30039;51.462;6.892;2022-12-05T16:52:24;18.65;;;10.07;;
44328;SDS011;30039;51.462;6.892;2022-12-05T16:55:14;13.77;;;8.40;;
44328;SDS011;30039;51.462;6.892;2022-12-05T16:58:01;12.23;;;8.57;;
44328;SDS011;30039;51.462;6.892;2022-12-05T17:00:47;14.30;;;9.90;;
44328;SDS011;30039;51.462;6.892;2022-12-05T17:03:33;15.57;;;9.63;;
44328;SDS011;30039;51.462;6.892;2022-12-05T17:06:19;12.70;;;8.73;;
44328;SDS011;30039;51.462;6.892;2022-12-05T17:09:09;14.85;;;9.60;;
44328;SDS011;30039;51.462;6.892;2022-12-05T17:11:58;13.32;;;9.15;;
44328;SDS011;30039;51.462;6.892;2022-12-05T17:14:45;14.30;;;10.02;;
44328;SDS011;30039;51.462;6.892;2022-12-05T17:17:31;12.73;;;9.18;;
44328;SDS011;30039;51.462;6.892;2022-12-05T17:20:17;14.02;;;9.30;;
44328;SDS011;30039;51.462;6.892;2022-12-05T17:23:03;14.95;;;8.77;;
44328;SDS011;30039;51.462;6.892;2022-12-05T17:25:50;12.82;;;8.50;;
44328;SDS011;30039;51.462;6.892;2022-12-05T17:28:36;10.30;;;7.88;;
44328;SDS011;30039;51.462;6.892;2022-12-05T17:31:28;11.55;;;7.75;;
44328;SDS011;30039;51.462;6.892;2022-12-05T17:34:15;11.18;;;7.50;;
44328;SDS011;30039;51.462;6.892;2022-12-05T17:37:02;10.30;;;7.53;;
44328;SDS011;30039;51.462;6.892;2022-12-05T17:39:52;9.35;;;7.00;;
44328;SDS011;30039;51.462;6.892;2022-12-05T17:42:41;10.15;;;7.47;;
44328;SDS011;30039;51.462;6.892;2022-12-05T17:45:27;9.35;;;7.15;;
44328;SDS011;30039;51.462;6.892;2022-12-05T17:48:15;11.38;;;7.45;;
44328;SDS011;30039;51.462;6.892;2022-12-05T17:51:02;10.30;;;7.05;;
44328;SDS011;30039;51.462;6.892;2022-12-05T17:53:50;11.07;;;7.75;;
44328;SDS011;30039;51.462;6.892;2022-12-05T17:56:44;10.85;;;7.78;;
44328;SDS011;30039;51.462;6.892;2022-12-05T17:59:30;9.85;;;7.10;;
44328;SDS011;30039;51.462;6.892;2022-12-05T18:02:15;10.10;;;7.28;;
44328;SDS011;30039;51.462;6.892;2022-12-05T18:05:05;11.35;;;7.22;;
44328;SDS011;30039;51.462;6.892;2022-12-05T18:07:52;12.48;;;8.15;;
44328;SDS011;30039;51.462;6.892;2022-12-05T18:10:45;13.00;;;7.57;;
44328;SDS011;30039;51.462;6.892;2022-12-05T18:13:33;11.50;;;6.65;;
44328;SDS011;30039;51.462;6.892;2022-12-05T18:16:20;9.82;;;7.15;;
44328;SDS011;30039;51.462;6.892;2022-12-05T18:19:06;13.13;;;7.10;;
44328;SDS011;30039;51.462;6.892;2022-12-05T18:21:53;8.98;;;7.22;;
44328;SDS011;30039;51.462;6.892;2022-12-05T18:24:39;10.70;;;6.90;;
44328;SDS011;30039;51.462;6.892;2022-12-05T18:27:33;9.35;;;6.70;;
44328;SDS011;30039;51.462;6.892;2022-12-05T18:30:19;11.85;;;7.10;;
44328;SDS011;30039;51.462;6.892;2022-12-05T18:33:05;9.63;;;6.68;;
44328;SDS011;30039;51.462;6.892;2022-12-05T18:35:51;10.02;;;6.88;;
44328;SDS011;30039;51.462;6.892;2022-12-05T18:38:38;12.10;;;7.90;;
44328;SDS011;30039;51.462;6.892;2022-12-05T18:41:25;13.07;;;7.85;;
44328;SDS011;30039;51.462;6.892;2022-12-05T18:44:11;11.30;;;7.90;;
44328;SDS011;30039;51.462;6.892;2022-12-05T18:46:57;12.82;;;7.97;;
44328;SDS011;30039;51.462;6.892;2022-12-05T18:49:43;13.30;;;8.55;;
44328;SDS011;30039;51.462;6.892;2022-12-05T18:52:28;14.38;;;8.20;;
44328;SDS011;30039;51.462;6.892;2022-12-05T18:55:15;12.38;;;8.20;;
44328;SDS011;30039;51.462;6.892;2022-12-05T18:58:10;12.38;;;8.18;;
44328;SDS011;30039;51.462;6.892;2022-12-05T19:01:05;15.43;;;8.38;;
44328;SDS011;30039;51.462;6.892;2022-12-05T19:03:51;16.83;;;9.43;;
44328;SDS011;30039;51.462;6.892;2022-12-05T19:06:38;14.07;;;8.75;;
44328;SDS011;30039;51.462;6.892;2022-12-05T19:09:27;16.17;;;9.02;;
44328;SDS011;30039;51.462;6.892;2022-12-05T19:12:13;48.50;;;20.65;;